Time;durP1;ratioP1;P1;durP2;ratioP2;P2;SDS_P1;SDS_P2;PMS_P1;PMS_P2;Temp;Humidity;BMP_temperature;BMP_pressure;BME280_temperature;BME280_humidity;BME280_pressure;Samples;Min_cycle;Max_cycle;Signal;HPM_P1;HPM_P2
2022/07/24 00:00:24;;;;;;;30.75;16.85;;;;;;;18.42;70.72;99629.56;4816857;29;20042;-80
2022/07/24 00:02:50;;;;;;;29.20;17.02;;;;;;;18.34;70.75;99619.34;4819608;29;20057;-80
2022/07/24 00:05:16;;;;;;;25.33;17.08;;;;;;;18.40;70.92;99619.09;4834372;29;20039;-78
2022/07/24 00:07:43;;;;;;;36.80;18.55;;;;;;;18.46;70.89;99626.72;4823409;29;20042;-78
2022/07/24 00:10:11;;;;;;;35.13;18.60;;;;;;;18.43;70.91;99612.81;4828542;29;20147;-79
2022/07/24 00:12:37;;;;;;;36.30;19.55;;;;;;;18.49;71.15;99618.69;4816408;29;20137;-80
2022/07/24 00:15:04;;;;;;;28.83;16.75;;;;;;;18.47;71.25;99610.00;4815763;29;20137;-80
2022/07/24 00:17:31;;;;;;;37.95;18.90;;;;;;;18.42;71.11;99595.34;4818279;29;20426;-81
2022/07/24 00:19:57;;;;;;;31.05;17.73;;;;;;;18.54;71.22;99618.47;4819366;29;20054;-79
2022/07/24 00:22:23;;;;;;;30.80;17.95;;;;;;;18.51;71.00;99618.59;4822836;29;20080;-81
2022/07/24 00:24:51;;;;;;;23.65;16.20;;;;;;;18.44;70.82;99622.44;4818479;29;20061;-78
2022/07/24 00:27:18;;;;;;;34.53;18.10;;;;;;;18.44;70.81;99627.69;4819975;29;20130;-79
2022/07/24 00:29:44;;;;;;;41.88;27.83;;;;;;;18.32;70.68;99616.81;4821384;29;20045;-80
2022/07/24 00:32:10;;;;;;;26.95;16.92;;;;;;;18.38;70.89;99633.25;4826686;29;20531;-78
2022/07/24 00:34:36;;;;;;;25.60;15.82;;;;;;;18.25;71.04;99614.50;4841515;29;20072;-80
2022/07/24 00:37:02;;;;;;;31.10;18.45;;;;;;;18.33;70.88;99634.31;4834021;29;20132;-79
2022/07/24 00:39:29;;;;;;;27.52;17.02;;;;;;;18.27;71.07;99617.94;4833894;29;20061;-80
2022/07/24 00:41:56;;;;;;;31.02;18.65;;;;;;;18.26;71.15;99613.59;4837040;29;20057;-78
2022/07/24 00:44:22;;;;;;;34.47;18.60;;;;;;;18.27;71.28;99618.78;4842222;29;20037;-79
2022/07/24 00:46:48;;;;;;;35.58;17.83;;;;;;;18.33;71.21;99618.50;4840840;29;20063;-79
2022/07/24 00:49:17;;;;;;;29.80;17.48;;;;;;;18.30;71.18;99618.63;4843333;29;20042;-79
2022/07/24 00:51:46;;;;;;;30.55;17.50;;;;;;;18.23;71.09;99617.19;4818964;29;20050;-80
2022/07/24 00:54:13;;;;;;;32.17;17.58;;;;;;;18.28;71.24;99631.03;4832941;29;20042;-79
2022/07/24 00:56:42;;;;;;;31.50;18.42;;;;;;;18.26;71.28;99629.38;4817350;29;20058;-80
2022/07/24 00:59:09;;;;;;;24.48;15.68;;;;;;;18.22;71.21;99628.63;4813672;29;20123;-79
2022/07/24 01:01:35;;;;;;;29.48;15.00;;;;;;;18.25;71.05;99630.31;4818164;29;20042;-79
2022/07/24 01:04:01;;;;;;;28.35;15.90;;;;;;;18.13;71.10;99603.56;4819043;29;20046;-79
2022/07/24 01:06:27;;;;;;;23.77;14.80;;;;;;;18.20;70.85;99618.19;4817910;29;20117;-80
2022/07/24 01:08:54;;;;;;;25.77;15.75;;;;;;;18.16;70.95;99621.03;4831077;29;20050;-80
2022/07/24 01:11:21;;;;;;;36.08;16.55;;;;;;;18.02;70.70;99597.94;4833159;29;20057;-79
2022/07/24 01:13:48;;;;;;;25.83;15.02;;;;;;;18.09;70.67;99620.44;4828019;29;20042;-79
2022/07/24 01:16:15;;;;;;;26.20;15.70;;;;;;;17.94;70.76;99610.50;4828292;29;20071;-78
2022/07/24 01:18:42;;;;;;;24.20;15.80;;;;;;;17.93;70.83;99620.19;4831683;29;20046;-79
2022/07/24 01:21:09;;;;;;;24.13;15.00;;;;;;;17.85;70.96;99617.03;4833475;29;20050;-78
2022/07/24 01:23:35;;;;;;;20.90;14.55;;;;;;;17.87;70.93;99623.97;4840614;29;20149;-80
2022/07/24 01:26:01;;;;;;;41.90;16.30;;;;;;;17.77;71.23;99610.28;4801395;29;20053;-81
2022/07/24 01:28:28;;;;;;;25.83;15.95;;;;;;;17.79;71.08;99617.28;4816776;29;20051;-78
2022/07/24 01:30:54;;;;;;;25.63;15.15;;;;;;;17.82;71.23;99625.91;4815889;29;20174;-79
2022/07/24 01:33:21;;;;;;;22.17;14.98;;;;;;;17.84;71.25;99631.97;4813187;29;20042;-79
2022/07/24 01:35:47;;;;;;;31.05;16.73;;;;;;;17.73;71.15;99610.50;4826679;29;20049;-80
2022/07/24 01:38:13;;;;;;;26.90;15.13;;;;;;;17.75;71.22;99617.44;4821474;29;20082;-80
2022/07/24 01:40:40;;;;;;;24.30;17.02;;;;;;;17.78;71.20;99616.44;4807516;29;20038;-81
2022/07/24 01:43:06;;;;;;;28.20;16.42;;;;;;;17.86;71.39;99627.50;4818542;29;20114;-80
2022/07/24 01:45:32;;;;;;;27.02;16.75;;;;;;;17.82;71.38;99617.16;4814209;29;20094;-80
2022/07/24 01:47:59;;;;;;;27.15;15.68;;;;;;;17.80;71.45;99618.97;4827849;29;20054;-80
2022/07/24 01:50:25;;;;;;;22.85;14.45;;;;;;;17.79;71.82;99620.78;4816132;29;20073;-82
2022/07/24 01:52:53;;;;;;;24.08;16.30;;;;;;;17.88;71.71;99633.53;4814972;29;20052;-82
2022/07/24 01:55:20;;;;;;;28.63;16.48;;;;;;;17.84;71.75;99623.22;4799037;29;20073;-81
2022/07/24 01:57:47;;;;;;;25.48;16.02;;;;;;;17.89;71.96;99629.13;4812377;29;20062;-79
2022/07/24 02:00:15;;;;;;;30.85;16.45;;;;;;;17.85;71.61;99609.13;4815034;29;20046;-79
2022/07/24 02:02:42;;;;;;;27.83;14.68;;;;;;;17.95;71.86;99620.13;4815526;29;20042;-81
2022/07/24 02:05:12;;;;;;;32.13;16.75;;;;;;;17.95;71.42;99626.25;4801780;29;20050;-78
2022/07/24 02:07:40;;;;;;;29.38;15.88;;;;;;;17.97;71.70;99632.31;4815513;29;20046;-79
2022/07/24 02:10:07;;;;;;;28.45;15.80;;;;;;;17.90;71.48;99618.53;4816483;29;20138;-81
2022/07/24 02:12:33;;;;;;;33.15;17.02;;;;;;;18.00;71.61;99631.34;4812573;29;20136;-81
2022/07/24 02:15:19;;;;;;;33.78;16.40;;;;;;;18.14;71.37;99636.03;4813803;29;21629;-81
2022/07/24 02:17:47;;;;;;;37.42;16.58;;;;;;;18.12;71.19;99622.91;4797175;29;20118;-81
2022/07/24 02:20:13;;;;;;;36.78;16.20;;;;;;;18.30;71.50;99644.13;4831804;29;20053;-81
2022/07/24 02:22:39;;;;;;;41.35;17.60;;;;;;;18.36;71.36;99641.22;4815147;29;20042;-81
2022/07/24 02:25:06;;;;;;;37.85;15.10;;;;;;;18.42;71.47;99645.38;4813459;29;20058;-80
2022/07/24 02:27:32;;;;;;;31.23;15.73;;;;;;;18.43;71.43;99632.13;4833976;29;20102;-80
2022/07/24 02:29:58;;;;;;;28.95;16.05;;;;;;;18.57;71.17;99642.06;4816878;29;20084;-79
2022/07/24 02:32:25;;;;;;;41.58;16.75;;;;;;;18.62;71.03;99640.09;4816090;29;20050;-81
2022/07/24 02:34:51;;;;;;;25.55;15.25;;;;;;;18.58;71.02;99633.22;4816266;29;20104;-81
2022/07/24 02:37:17;;;;;;;28.95;15.43;;;;;;;18.65;70.92;99629.38;4818877;29;20145;-81
2022/07/24 02:39:43;;;;;;;27.80;16.35;;;;;;;18.58;70.93;99619.19;4820696;29;20046;-79
2022/07/24 02:42:09;;;;;;;26.73;15.13;;;;;;;18.70;70.85;99636.22;4816495;29;20046;-80
2022/07/24 02:44:35;;;;;;;28.08;15.25;;;;;;;18.66;70.83;99631.09;4833788;29;20079;-81
2022/07/24 02:47:01;;;;;;;29.83;15.38;;;;;;;18.74;70.83;99643.94;4832521;29;20050;-78
2022/07/24 02:49:27;;;;;;;28.20;15.45;;;;;;;18.74;70.86;99638.66;4830254;29;21217;-78
2022/07/24 02:51:54;;;;;;;27.08;15.90;;;;;;;18.80;70.68;99642.81;4818369;29;20042;-79
2022/07/24 02:54:20;;;;;;;29.10;15.82;;;;;;;18.78;70.85;99623.56;4837099;29;20067;-77
2022/07/24 02:56:46;;;;;;;23.77;14.50;;;;;;;18.99;70.83;99641.97;4818337;29;20055;-80
2022/07/24 02:59:12;;;;;;;31.23;14.90;;;;;;;19.06;70.85;99633.72;4829300;29;20063;-81
2022/07/24 03:01:38;;;;;;;26.20;14.70;;;;;;;19.21;70.61;99642.69;4820199;29;20038;-78
2022/07/24 03:04:04;;;;;;;24.70;14.77;;;;;;;19.29;70.52;99644.97;4825660;29;20522;-79
2022/07/24 03:06:30;;;;;;;25.92;14.80;;;;;;;19.30;70.47;99630.84;4821944;29;20054;-80
2022/07/24 03:08:57;;;;;;;34.33;15.18;;;;;;;19.44;70.25;99638.09;4819319;29;20057;-79
2022/07/24 03:11:23;;;;;;;24.35;15.38;;;;;;;19.47;70.03;99624.75;4815069;29;20109;-79
2022/07/24 03:13:49;;;;;;;24.42;14.52;;;;;;;19.55;69.54;99627.03;4819004;29;20137;-81
2022/07/24 03:16:16;;;;;;;24.40;14.40;;;;;;;19.59;69.68;99633.88;4818125;29;20120;-80
2022/07/24 03:18:45;;;;;;;22.45;14.90;;;;;;;19.66;69.49;99629.13;4817709;29;20042;-79
2022/07/24 03:21:16;;;;;;;23.95;14.60;;;;;;;19.71;69.54;99627.13;4817415;29;20050;-80
2022/07/24 03:23:42;;;;;;;23.42;14.30;;;;;;;19.72;69.42;99615.66;4818399;29;20514;-79
2022/07/24 03:26:09;;;;;;;23.33;14.23;;;;;;;19.85;69.35;99622.00;4816687;29;20054;-82
2022/07/24 03:28:35;;;;;;;22.42;14.60;;;;;;;19.90;69.30;99605.13;4814777;29;20046;-81
2022/07/24 03:31:01;;;;;;;22.92;14.15;;;;;;;20.17;69.22;99630.13;4818848;29;20057;-82
2022/07/24 03:33:29;;;;;;;24.17;14.82;;;;;;;20.22;68.85;99614.03;4818003;29;20051;-79
2022/07/24 03:35:56;;;;;;;25.45;14.82;;;;;;;20.32;68.76;99625.78;4816626;29;20551;-80
2022/07/24 03:38:22;;;;;;;23.38;14.50;;;;;;;20.34;68.61;99628.38;4817963;29;20133;-79
2022/07/24 03:40:49;;;;;;;27.95;14.80;;;;;;;20.35;68.79;99616.88;4817685;29;20050;-80
2022/07/24 03:43:15;;;;;;;24.15;13.75;;;;;;;20.38;68.36;99614.06;4800159;29;20829;-79
2022/07/24 03:45:42;;;;;;;20.42;14.32;;;;;;;20.54;68.36;99618.53;4829853;29;20047;-81
2022/07/24 03:48:08;;;;;;;20.65;13.95;;;;;;;20.79;68.20;99622.53;4818007;29;20066;-81
2022/07/24 03:50:34;;;;;;;22.58;14.35;;;;;;;20.85;67.76;99620.41;4804266;29;20128;-80
2022/07/24 03:53:00;;;;;;;20.35;13.52;;;;;;;20.97;67.85;99605.66;4803338;29;20061;-80
2022/07/24 03:55:26;;;;;;;23.10;14.18;;;;;;;21.07;67.57;99611.31;4828598;29;20047;-79
2022/07/24 03:57:53;;;;;;;28.05;15.45;;;;;;;20.91;67.50;99572.50;4813254;29;20058;-80
2022/07/24 04:00:19;;;;;;;28.70;14.38;;;;;;;21.30;67.54;99606.50;4825617;29;20047;-80
2022/07/24 04:02:45;;;;;;;22.00;14.13;;;;;;;21.34;67.64;99569.19;4822306;29;20046;-82
2022/07/24 04:05:13;;;;;;;25.67;13.63;;;;;;;21.81;67.55;99607.13;4820211;29;20057;-81
2022/07/24 04:07:39;;;;;;;23.48;14.00;;;;;;;22.11;67.14;99608.03;4814629;29;20101;-82
2022/07/24 04:10:07;;;;;;;21.33;13.88;;;;;;;22.27;66.20;99589.44;4831250;29;20046;-84
2022/07/24 04:12:34;;;;;;;18.95;13.38;;;;;;;22.49;65.70;99591.63;4817810;29;20129;-81
2022/07/24 04:15:00;;;;;;;19.00;13.40;;;;;;;22.57;65.37;99583.19;4820593;29;20188;-83
2022/07/24 04:17:26;;;;;;;18.00;13.88;;;;;;;22.82;64.88;99614.34;4818753;29;20439;-84
2022/07/24 04:19:53;;;;;;;18.27;12.82;;;;;;;23.06;64.81;99604.91;4819112;29;20072;-83
2022/07/24 04:22:19;;;;;;;21.75;12.77;;;;;;;23.23;64.50;99593.25;4818598;29;20114;-85
2022/07/24 04:24:45;;;;;;;18.88;12.63;;;;;;;23.45;63.65;99577.63;4817581;29;20507;-84
2022/07/24 04:27:11;;;;;;;16.33;11.68;;;;;;;23.60;62.05;99567.78;4836826;29;20042;-86
2022/07/24 04:29:37;;;;;;;16.20;11.43;;;;;;;24.01;61.43;99608.44;4835405;29;20109;-86
2022/07/24 04:32:03;;;;;;;15.30;11.23;;;;;;;24.30;61.02;99596.75;4821686;29;20654;-85
2022/07/24 04:34:29;;;;;;;13.55;10.48;;;;;;;24.40;60.20;99562.41;4825963;29;20045;-86
2022/07/24 04:36:56;;;;;;;16.08;11.02;;;;;;;24.85;59.78;99601.84;4819749;29;20041;-84
2022/07/24 04:39:22;;;;;;;16.80;11.02;;;;;;;25.07;58.64;99591.34;4815522;29;20144;-86
2022/07/24 04:41:48;;;;;;;17.02;10.90;;;;;;;25.19;58.47;99570.09;4801220;29;20046;-85
2022/07/24 04:44:14;;;;;;;16.13;10.75;;;;;;;25.25;57.59;99543.88;4815629;29;20194;-86
2022/07/24 04:46:40;;;;;;;12.80;11.02;;;;;;;25.55;57.26;99555.88;4817577;29;20133;-86
2022/07/24 04:49:06;;;;;;;17.85;11.05;;;;;;;25.92;56.06;99576.22;4816895;29;20046;-83
2022/07/24 04:51:32;;;;;;;18.60;10.45;;;;;;;26.17;55.43;99577.00;4833725;29;20049;-85
2022/07/24 04:53:58;;;;;;;15.48;9.82;;;;;;;26.52;54.47;99589.38;4803592;29;20053;-86
2022/07/24 04:56:24;;;;;;;11.05;8.55;;;;;;;26.63;54.20;99575.19;4818751;29;20050;-85
2022/07/24 04:58:51;;;;;;;10.40;8.57;;;;;;;26.84;52.88;99559.31;4817570;29;20058;-82
2022/07/24 05:01:17;;;;;;;11.48;8.15;;;;;;;27.03;52.17;99552.47;4829212;29;20060;-84
2022/07/24 05:03:43;;;;;;;11.57;8.20;;;;;;;27.50;51.54;99590.44;4819103;29;20399;-83
2022/07/24 05:06:09;;;;;;;10.35;7.68;;;;;;;27.54;50.68;99556.28;4818369;29;20620;-84
2022/07/24 05:08:35;;;;;;;9.40;7.63;;;;;;;27.83;49.90;99570.84;4818739;29;20499;-83
2022/07/24 05:11:03;;;;;;;10.95;7.53;;;;;;;28.08;49.27;99588.31;4819662;29;20074;-85
2022/07/24 05:13:30;;;;;;;9.70;5.82;;;;;;;28.13;48.90;99572.75;4832896;29;20054;-85
2022/07/24 05:15:56;;;;;;;7.90;6.00;;;;;;;28.19;48.15;99547.31;4840758;29;20030;-82
2022/07/24 05:18:22;;;;;;;8.20;5.90;;;;;;;28.35;47.77;99547.66;4827983;29;20054;-84
2022/07/24 05:20:48;;;;;;;8.52;6.28;;;;;;;28.73;47.39;99572.00;4824780;29;20058;-82
2022/07/24 05:23:14;;;;;;;9.70;5.80;;;;;;;28.73;46.84;99533.66;4819605;29;20476;-81
2022/07/24 05:25:41;;;;;;;9.73;6.07;;;;;;;29.10;46.31;99568.72;4822253;29;20086;-82
2022/07/24 05:28:07;;;;;;;7.43;5.82;;;;;;;29.39;45.74;99575.97;4818224;29;20053;-84
2022/07/24 05:30:33;;;;;;;8.82;6.30;;;;;;;29.52;45.25;99554.25;4816018;29;20056;-82
2022/07/24 05:32:59;;;;;;;7.38;5.75;;;;;;;29.80;44.85;99543.59;4818723;29;20051;-84
2022/07/24 05:35:25;;;;;;;5.60;5.00;;;;;;;29.97;43.74;99533.19;4817177;29;20050;-81
2022/07/24 05:37:51;;;;;;;9.80;5.82;;;;;;;30.42;43.20;99561.94;4829506;29;20098;-82
2022/07/24 05:40:17;;;;;;;7.88;5.57;;;;;;;30.63;42.54;99561.72;4828809;29;20110;-85
2022/07/24 05:42:43;;;;;;;5.43;4.78;;;;;;;30.70;42.06;99555.75;4830745;29;20455;-84
2022/07/24 05:45:10;;;;;;;5.95;4.90;;;;;;;30.84;41.45;99523.03;4813564;29;20061;-83
2022/07/24 05:47:41;;;;;;;8.63;4.80;;;;;;;31.47;41.13;99539.25;4818498;29;20042;-84
2022/07/24 05:50:12;;;;;;;9.30;4.70;;;;;;;32.68;38.76;99530.38;4829435;29;20118;-82
2022/07/24 05:52:39;;;;;;;6.35;4.72;;;;;;;34.53;37.06;99524.59;4836101;29;20042;-83
2022/07/24 05:55:06;;;;;;;6.85;4.53;;;;;;;36.26;34.47;99516.06;4817995;29;20042;-82
2022/07/24 05:57:33;;;;;;;7.47;4.85;;;;;;;38.07;32.00;99546.00;4810974;29;20475;-84
2022/07/24 05:59:59;;;;;;;5.38;4.38;;;;;;;39.22;30.41;99520.91;4828012;29;20042;-84
2022/07/24 06:02:25;;;;;;;7.43;4.47;;;;;;;40.47;28.71;99522.00;4820846;29;20045;-80
2022/07/24 06:04:51;;;;;;;4.65;3.90;;;;;;;41.61;26.87;99547.69;4850877;29;20055;-82
2022/07/24 06:07:17;;;;;;;6.18;3.90;;;;;;;42.45;25.36;99546.41;4828608;29;20046;-84
2022/07/24 06:09:43;;;;;;;6.82;3.75;;;;;;;43.31;23.96;99542.69;4819235;29;20053;-82
2022/07/24 06:12:13;;;;;;;4.10;3.70;;;;;;;44.13;22.27;99534.72;4798463;29;20161;-82
2022/07/24 06:14:39;;;;;;;5.03;3.30;;;;;;;44.21;21.31;99535.16;4817071;29;20043;-83
2022/07/24 06:17:05;;;;;;;3.00;2.78;;;;;;;44.67;20.43;99548.13;4806283;29;20125;-80
2022/07/24 06:19:32;;;;;;;3.35;3.05;;;;;;;44.98;19.50;99555.03;4815144;29;20374;-80
2022/07/24 06:21:58;;;;;;;4.28;2.80;;;;;;;44.99;18.86;99542.16;4828313;29;20125;-80
2022/07/24 06:24:24;;;;;;;5.10;3.15;;;;;;;45.43;18.29;99533.28;4845389;29;20047;-82
2022/07/24 06:26:50;;;;;;;4.90;3.05;;;;;;;46.43;17.73;99540.72;4830610;29;20042;-78
2022/07/24 06:29:16;;;;;;;3.80;3.25;;;;;;;47.12;17.23;99543.06;4840858;29;20073;-80
2022/07/24 06:31:43;;;;;;;3.28;2.85;;;;;;;48.18;16.60;99540.44;4832571;29;20066;-77
2022/07/24 06:34:09;;;;;;;3.72;3.20;;;;;;;48.90;15.61;99538.97;4839059;29;20061;-79
2022/07/24 06:36:35;;;;;;;5.05;3.72;;;;;;;49.39;15.14;99541.19;4839818;29;20050;-79
2022/07/24 06:39:02;;;;;;;4.28;3.83;;;;;;;50.08;14.62;99535.25;4840576;29;20114;-81
2022/07/24 06:41:28;;;;;;;4.45;3.78;;;;;;;50.60;13.67;99529.44;4839556;29;20059;-81
2022/07/24 06:43:54;;;;;;;6.22;3.78;;;;;;;50.65;13.43;99528.59;4831633;29;20077;-79
2022/07/24 06:46:20;;;;;;;6.05;3.13;;;;;;;50.80;13.52;99525.72;4818117;29;20055;-80
2022/07/24 06:48:46;;;;;;;4.72;4.07;;;;;;;51.23;12.91;99525.09;4827269;29;20050;-81
2022/07/24 06:51:12;;;;;;;7.68;4.90;;;;;;;51.61;12.56;99514.22;4824766;29;20447;-80
2022/07/24 06:53:40;;;;;;;5.60;4.60;;;;;;;51.68;12.48;99517.44;4824977;29;20054;-80
2022/07/24 06:56:07;;;;;;;5.18;4.38;;;;;;;51.92;11.90;99524.94;4826212;29;20042;-80
2022/07/24 06:58:33;;;;;;;4.38;3.97;;;;;;;52.15;11.83;99511.31;4829808;29;20059;-79
2022/07/24 07:01:00;;;;;;;5.47;4.07;;;;;;;52.46;11.31;99512.84;4834352;29;20054;-78
2022/07/24 07:03:27;;;;;;;5.25;4.22;;;;;;;52.79;11.35;99524.81;4835058;29;20054;-80
2022/07/24 07:05:53;;;;;;;5.32;4.20;;;;;;;52.49;11.38;99503.91;4835009;29;20043;-81
2022/07/24 07:08:19;;;;;;;4.38;3.58;;;;;;;52.35;11.10;99501.91;4825752;29;20109;-79
2022/07/24 07:10:46;;;;;;;5.00;3.75;;;;;;;52.72;11.16;99507.75;4826127;29;20133;-81
2022/07/24 07:13:13;;;;;;;3.83;3.50;;;;;;;53.12;10.51;99504.56;4831011;29;20058;-80
2022/07/24 07:15:39;;;;;;;4.63;3.83;;;;;;;53.65;10.60;99499.72;4834500;29;20046;-83
2022/07/24 07:18:05;;;;;;;5.45;3.97;;;;;;;53.61;10.77;99499.53;4832697;29;20050;-82
2022/07/24 07:20:32;;;;;;;7.70;3.80;;;;;;;53.42;10.69;99492.06;4835550;29;20042;-81
2022/07/24 07:22:58;;;;;;;6.18;3.75;;;;;;;52.28;11.12;99504.22;4820602;29;20053;-82
2022/07/24 07:25:24;;;;;;;3.92;3.25;;;;;;;52.31;10.56;99494.50;4830553;29;20049;-80
2022/07/24 07:27:50;;;;;;;4.80;4.10;;;;;;;51.59;11.20;99499.81;4830191;29;20050;-83
2022/07/24 07:30:17;;;;;;;4.45;4.05;;;;;;;50.74;11.77;99475.13;4832152;29;20086;-81
2022/07/24 07:32:43;;;;;;;3.67;3.42;;;;;;;52.00;10.72;99497.69;4818898;29;20133;-83
2022/07/24 07:35:09;;;;;;;6.75;3.40;;;;;;;53.04;10.50;99499.75;4823753;29;20115;-80
2022/07/24 07:37:35;;;;;;;4.15;3.75;;;;;;;52.45;10.05;99470.41;4821673;29;20491;-81
2022/07/24 07:40:03;;;;;;;3.33;2.90;;;;;;;51.37;10.33;99465.13;4849132;29;20083;-83
2022/07/24 07:42:29;;;;;;;4.32;3.30;;;;;;;51.83;10.70;99488.69;4832054;29;20199;-82
2022/07/24 07:44:55;;;;;;;3.78;3.33;;;;;;;52.33;10.10;99475.59;4830993;29;20047;-82
2022/07/24 07:47:22;;;;;;;3.80;3.22;;;;;;;51.52;10.34;99468.84;4820875;29;20050;-83
2022/07/24 07:49:48;;;;;;;5.03;3.50;;;;;;;50.18;10.79;99484.63;4810358;29;20102;-80
2022/07/24 07:52:14;;;;;;;4.70;3.25;;;;;;;48.30;11.90;99457.50;4819198;29;20075;-82
2022/07/24 07:54:40;;;;;;;4.22;3.25;;;;;;;48.38;11.81;99456.97;4815582;29;20499;-83
2022/07/24 07:57:07;;;;;;;3.75;3.03;;;;;;;49.04;11.43;99465.56;4829709;29;20781;-83
2022/07/24 07:59:33;;;;;;;3.05;2.75;;;;;;;50.49;10.95;99473.34;4829066;29;20057;-80
2022/07/24 08:01:59;;;;;;;3.28;2.97;;;;;;;51.33;10.58;99468.78;4831093;29;20132;-81
2022/07/24 08:04:25;;;;;;;3.45;3.20;;;;;;;51.04;9.70;99477.91;4825679;29;20043;-81
2022/07/24 08:06:52;;;;;;;3.10;2.90;;;;;;;50.59;10.62;99459.47;4812988;29;20050;-82
2022/07/24 08:09:18;;;;;;;3.45;3.13;;;;;;;51.20;9.96;99459.22;4820040;29;20073;-82
2022/07/24 08:11:44;;;;;;;6.15;3.28;;;;;;;51.95;10.02;99448.69;4818459;29;20038;-81
2022/07/24 08:14:10;;;;;;;3.42;3.22;;;;;;;52.64;9.35;99447.38;4817485;29;20054;-84
2022/07/24 08:16:36;;;;;;;3.42;3.22;;;;;;;53.55;8.98;99459.84;4818744;29;20507;-84
2022/07/24 08:19:03;;;;;;;6.97;3.50;;;;;;;53.63;9.14;99465.84;4829049;29;20077;-82
2022/07/24 08:21:29;;;;;;;3.22;2.75;;;;;;;53.75;9.22;99466.13;4829760;29;20526;-82
2022/07/24 08:23:58;;;;;;;3.95;3.42;;;;;;;53.95;8.81;99455.75;4829906;29;20499;-83
2022/07/24 08:26:24;;;;;;;3.50;3.20;;;;;;;53.14;8.98;99452.31;4817142;29;20039;-83
2022/07/24 08:28:51;;;;;;;9.57;3.75;;;;;;;53.15;9.43;99465.06;4823114;29;20149;-81
2022/07/24 08:31:17;;;;;;;3.88;3.58;;;;;;;52.75;8.95;99442.47;4814736;29;20069;-83
2022/07/24 08:33:43;;;;;;;5.03;3.28;;;;;;;52.89;9.49;99453.59;4810539;29;20081;-80
2022/07/24 08:36:09;;;;;;;3.60;3.30;;;;;;;53.06;9.59;99448.31;4788538;29;21119;-81
2022/07/24 08:38:35;;;;;;;3.00;2.78;;;;;;;53.29;8.97;99434.56;4830959;29;20515;-83
2022/07/24 08:41:02;;;;;;;3.42;2.85;;;;;;;53.52;8.50;99443.78;4818249;29;20530;-80
2022/07/24 08:43:28;;;;;;;5.45;3.13;;;;;;;53.31;9.20;99429.53;4818221;29;20061;-80
2022/07/24 08:45:55;;;;;;;3.55;3.30;;;;;;;53.13;8.98;99417.34;4819016;29;20038;-84
2022/07/24 08:48:23;;;;;;;3.10;2.90;;;;;;;53.58;8.31;99447.31;4817049;29;20106;-80
2022/07/24 08:50:50;;;;;;;7.30;3.35;;;;;;;54.10;8.64;99435.91;4817689;29;20872;-82
2022/07/24 08:53:20;;;;;;;4.00;3.70;;;;;;;54.61;8.57;99446.97;4814625;29;20137;-82
2022/07/24 08:55:46;;;;;;;4.50;3.60;;;;;;;53.35;8.39;99426.94;4787357;29;20178;-84
2022/07/24 08:58:12;;;;;;;4.35;3.20;;;;;;;52.58;8.92;99410.53;4813017;29;20054;-81
2022/07/24 09:00:39;;;;;;;3.20;3.00;;;;;;;53.17;8.66;99443.38;4818735;29;20054;-82
2022/07/24 09:03:12;;;;;;;3.60;3.38;;;;;;;53.11;8.67;99436.28;4796206;29;20053;-79
2022/07/24 09:05:58;;;;;;;4.72;4.03;;;;;;;52.60;8.77;99422.19;4840014;29;20057;-80
2022/07/24 09:08:27;;;;;;;4.07;3.70;;;;;;;50.57;9.83;99400.81;4829862;29;20073;-81
2022/07/24 09:11:04;;;;;;;4.57;3.78;;;;;;;49.90;10.12;99406.78;4838732;29;20055;-80
2022/07/24 09:16:24;;;;;;;4.35;3.40;;;;;;;50.43;9.79;99395.09;4820211;29;20066;-80
2022/07/24 09:19:05;;;;;;;4.35;3.60;;;;;;;51.58;9.19;99415.03;4808855;29;20041;-79
2022/07/24 09:21:37;;;;;;;6.78;3.80;;;;;;;52.34;9.04;99422.59;4788495;29;20042;-84
2022/07/24 09:24:18;;;;;;;4.60;4.20;;;;;;;53.38;8.66;99420.78;4815245;29;20110;-84
2022/07/24 09:26:50;;;;;;;5.00;4.25;;;;;;;53.64;8.64;99411.91;4818053;29;20084;-86
2022/07/24 09:29:17;;;;;;;6.10;5.50;;;;;;;54.19;8.25;99397.84;4817322;29;20138;-83
2022/07/24 09:31:52;;;;;;;7.80;6.60;;;;;;;53.99;8.64;99409.47;4799797;29;20414;-82
2022/07/24 09:34:18;;;;;;;7.93;5.13;;;;;;;54.16;8.37;99397.66;4819067;29;20038;-85
2022/07/24 09:37:06;;;;;;;5.18;4.75;;;;;;;54.16;8.29;99401.28;4821880;29;20491;-83
2022/07/24 09:39:35;;;;;;;8.03;4.77;;;;;;;53.80;8.58;99390.16;4814565;29;20522;-85
2022/07/24 09:42:04;;;;;;;5.93;4.53;;;;;;;54.31;8.83;99399.28;4812043;29;20042;-84
2022/07/24 09:44:31;;;;;;;5.95;5.45;;;;;;;54.59;8.42;99410.25;4816287;29;20047;-82
2022/07/24 09:47:03;;;;;;;6.13;5.72;;;;;;;54.92;8.30;99391.28;4832689;29;20050;-83
2022/07/24 09:49:31;;;;;;;5.72;4.85;;;;;;;55.61;7.55;99403.00;4814973;29;21462;-80
2022/07/24 09:52:20;;;;;;;5.22;4.78;;;;;;;55.04;8.01;99401.00;4825514;29;20049;-81
2022/07/24 09:54:49;;;;;;;4.72;4.18;;;;;;;54.29;8.39;99390.44;4813720;29;20537;-80
2022/07/24 09:57:30;;;;;;;4.65;4.15;;;;;;;53.20;8.41;99400.28;4825667;29;20200;-79
2022/07/24 10:00:06;;;;;;;5.13;4.43;;;;;;;53.10;8.48;99396.59;4829223;29;20527;-78
2022/07/24 10:02:35;;;;;;;4.38;3.97;;;;;;;53.59;8.01;99396.16;4803262;29;20131;-80
2022/07/24 10:05:03;;;;;;;4.40;4.00;;;;;;;53.54;8.27;99391.50;4804202;29;20039;-81
2022/07/24 10:07:30;;;;;;;4.93;4.00;;;;;;;53.26;8.25;99388.75;4821135;29;20133;-82
2022/07/24 10:09:59;;;;;;;4.93;4.13;;;;;;;52.90;8.46;99385.84;4822200;29;20049;-82
2022/07/24 10:12:31;;;;;;;5.53;4.55;;;;;;;52.80;8.55;99384.09;4833896;29;20499;-81
2022/07/24 10:14:59;;;;;;;4.50;4.03;;;;;;;51.89;8.84;99394.38;4837993;29;20357;-80
2022/07/24 10:18:05;;;;;;;3.85;3.60;;;;;;;50.84;9.66;99366.25;4810166;29;20050;-81
2022/07/24 10:20:41;;;;;;;8.63;4.13;;;;;;;49.64;10.40;99373.75;4822305;29;20042;-81
2022/07/24 10:23:07;;;;;;;3.53;3.22;;;;;;;48.47;11.06;99377.28;4821586;29;20411;-78
2022/07/24 10:25:54;;;;;;;3.30;3.00;;;;;;;48.96;10.99;99377.81;4821610;29;20080;-80
2022/07/24 10:28:49;;;;;;;3.70;2.92;;;;;;;49.48;11.09;99377.69;4789011;29;20051;-78
2022/07/24 10:31:16;;;;;;;3.20;3.00;;;;;;;49.28;10.83;99374.69;4819098;29;20586;-79
2022/07/24 10:33:52;;;;;;;3.25;2.78;;;;;;;48.61;11.05;99380.31;4836356;29;20427;-81
2022/07/24 10:36:35;;;;;;;3.33;3.03;;;;;;;46.23;12.41;99370.06;4817226;29;20043;-81
2022/07/24 10:39:11;;;;;;;5.43;3.20;;;;;;;44.03;13.78;99374.47;4807714;29;20050;-81
2022/07/24 10:41:40;;;;;;;4.38;2.70;;;;;;;42.73;14.83;99372.72;4807447;29;20096;-81
2022/07/24 10:44:16;;;;;;;3.67;3.20;;;;;;;41.76;15.54;99369.06;4834337;29;20050;-79
2022/07/24 10:47:13;;;;;;;3.75;3.05;;;;;;;40.76;16.35;99371.72;4816904;29;20057;-80
2022/07/24 10:49:50;;;;;;;4.68;2.58;;;;;;;40.10;17.02;99365.63;4823915;29;21275;-79
2022/07/24 10:52:29;;;;;;;2.88;2.67;;;;;;;39.45;17.89;99362.72;4842535;29;20054;-81
2022/07/24 10:55:26;;;;;;;3.20;3.00;;;;;;;38.62;18.17;99361.28;4837181;29;20095;-79
2022/07/24 10:58:01;;;;;;;3.75;3.10;;;;;;;38.08;19.11;99358.44;4836213;29;20058;-78
2022/07/24 11:00:36;;;;;;;3.72;3.15;;;;;;;37.74;18.97;99357.47;4815782;29;20068;-82
2022/07/24 11:03:05;;;;;;;6.15;2.78;;;;;;;37.16;20.17;99363.19;4824963;29;20075;-83
2022/07/24 11:05:35;;;;;;;4.78;3.13;;;;;;;36.67;20.57;99349.44;4839998;29;20167;-82
2022/07/24 11:08:31;;;;;;;4.13;3.10;;;;;;;36.24;21.71;99354.81;4809234;29;20058;-82
2022/07/24 11:11:12;;;;;;;3.97;3.30;;;;;;;36.23;22.10;99361.25;4818488;29;20042;-80
2022/07/24 11:13:38;;;;;;;5.60;3.17;;;;;;;36.18;22.30;99353.72;4839603;29;20042;-85
2022/07/24 11:16:17;;;;;;;4.57;3.97;;;;;;;35.83;22.22;99348.09;4835430;29;20448;-83
2022/07/24 11:18:49;;;;;;;4.30;3.03;;;;;;;35.34;22.55;99346.78;4807325;29;20053;-83
2022/07/24 11:21:47;;;;;;;3.58;3.05;;;;;;;34.63;22.99;99340.72;4810603;29;20523;-82
2022/07/24 11:24:27;;;;;;;2.97;2.78;;;;;;;34.22;23.61;99343.66;4803502;29;20058;-83
2022/07/24 11:27:07;;;;;;;3.60;2.88;;;;;;;34.10;23.38;99329.72;4818966;29;20096;-82
2022/07/24 11:29:40;;;;;;;3.00;2.80;;;;;;;34.02;23.78;99335.19;4839198;29;20414;-81
2022/07/24 11:32:20;;;;;;;4.90;3.08;;;;;;;33.80;23.75;99324.97;4813152;29;20118;-81
2022/07/24 11:34:51;;;;;;;4.25;3.58;;;;;;;33.67;24.43;99334.66;4805841;29;20046;-79